createdAt,value
2022-09-24T00:00:22.309Z,10.71
2022-09-24T00:01:22.591Z,10.71
2022-09-24T00:02:22.986Z,10.70
2022-09-24T00:03:23.263Z,10.71
2022-09-24T00:04:23.754Z,10.71
2022-09-24T00:05:23.791Z,10.73
2022-09-24T00:06:24.169Z,10.73
2022-09-24T00:07:24.485Z,10.73
2022-09-24T00:08:24.722Z,10.74
2022-09-24T00:09:24.952Z,10.74
2022-09-24T00:10:25.307Z,10.74
2022-09-24T00:11:25.572Z,10.73
2022-09-24T00:12:25.829Z,10.76
2022-09-24T00:13:26.042Z,10.76
2022-09-24T00:14:26.381Z,10.78
2022-09-24T00:15:26.701Z,10.78
2022-09-24T00:16:27.040Z,10.78
2022-09-24T00:17:27.262Z,10.78
2022-09-24T00:18:27.493Z,10.78
2022-09-24T00:19:27.714Z,10.81
2022-09-24T00:20:28.063Z,10.78
2022-09-24T00:21:28.424Z,10.79
2022-09-24T00:22:28.671Z,10.78
2022-09-24T00:23:28.923Z,10.78
2022-09-24T00:24:29.154Z,10.79
2022-09-24T00:25:29.386Z,10.79
2022-09-24T00:26:29.666Z,10.82
2022-09-24T00:27:29.878Z,10.82
2022-09-24T00:28:30.257Z,10.81
2022-09-24T00:29:30.506Z,10.82
2022-09-24T00:30:30.746Z,10.82
2022-09-24T00:31:31.109Z,10.81
2022-09-24T00:32:31.316Z,10.78
2022-09-24T00:33:31.545Z,10.79
2022-09-24T00:34:31.748Z,10.78
2022-09-24T00:35:32.094Z,10.79
2022-09-24T00:36:32.432Z,10.78
2022-09-24T00:37:32.759Z,10.79
2022-09-24T00:38:33.100Z,10.79
2022-09-24T00:39:33.443Z,10.79
2022-09-24T00:40:33.843Z,10.81
2022-09-24T00:41:34.068Z,10.82
2022-09-24T00:42:34.433Z,10.82
2022-09-24T00:43:34.702Z,10.84
2022-09-24T00:44:35.043Z,10.84
2022-09-24T00:45:35.370Z,10.84
2022-09-24T00:46:35.801Z,10.82
2022-09-24T00:47:36.007Z,10.82
2022-09-24T00:48:36.304Z,10.82
2022-09-24T00:49:36.661Z,10.82
2022-09-24T00:50:36.891Z,10.82
2022-09-24T00:51:37.115Z,10.81
2022-09-24T00:52:37.320Z,10.81
2022-09-24T00:53:37.659Z,10.81
2022-09-24T00:54:37.987Z,10.79
2022-09-24T00:55:38.343Z,10.81
2022-09-24T00:56:38.561Z,10.82
2022-09-24T00:57:38.908Z,10.82
2022-09-24T00:58:39.231Z,10.84
2022-09-24T00:59:39.561Z,10.84
2022-09-24T01:00:40.020Z,10.85
2022-09-24T01:01:40.301Z,10.84
2022-09-24T01:02:40.541Z,10.84
2022-09-24T01:03:40.875Z,10.84
2022-09-24T01:04:41.212Z,10.85
2022-09-24T01:05:41.567Z,10.86
2022-09-24T01:06:41.786Z,10.88
2022-09-24T01:07:42.139Z,10.86
2022-09-24T01:08:42.466Z,10.89
2022-09-24T01:09:42.797Z,10.88
2022-09-24T01:10:43.138Z,10.89
2022-09-24T01:11:43.486Z,10.88
2022-09-24T01:12:43.851Z,10.91
2022-09-24T01:13:44.217Z,10.89
2022-09-24T01:14:44.375Z,10.91
2022-09-24T01:15:44.779Z,10.92
2022-09-24T01:16:44.965Z,10.94
2022-09-24T01:17:45.300Z,10.94
2022-09-24T01:18:45.638Z,10.94
2022-09-24T01:19:45.992Z,10.94
2022-09-24T01:20:46.191Z,10.94
2022-09-24T01:21:46.534Z,10.92
2022-09-24T01:22:46.864Z,10.92
2022-09-24T01:23:48.999Z,10.91
2022-09-24T01:24:47.567Z,10.94
2022-09-24T01:25:47.782Z,10.91
2022-09-24T01:26:48.139Z,10.92
2022-09-24T01:27:48.406Z,10.91
2022-09-24T01:28:48.640Z,10.92
2022-09-24T01:29:48.991Z,10.91
2022-09-24T01:30:49.333Z,10.91
2022-09-24T01:31:49.721Z,10.91
2022-09-24T01:32:49.931Z,10.91
2022-09-24T01:33:50.271Z,10.92
2022-09-24T01:34:50.622Z,10.92
2022-09-24T01:35:50.852Z,10.92
2022-09-24T01:36:51.202Z,10.92
2022-09-24T01:37:51.567Z,10.92
2022-09-24T01:38:51.754Z,10.94
2022-09-24T01:39:52.115Z,10.96
2022-09-24T01:40:52.479Z,10.96
2022-09-24T01:41:52.753Z,10.96
2022-09-24T01:42:53.074Z,10.96
2022-09-24T01:43:53.416Z,10.96
2022-09-24T01:44:53.783Z,10.96
2022-09-24T01:45:53.994Z,10.97
2022-09-24T01:46:54.379Z,10.97
2022-09-24T01:47:54.628Z,10.99
2022-09-24T01:48:54.997Z,10.97
2022-09-24T01:49:55.217Z,10.99
2022-09-24T01:50:55.616Z,10.99
2022-09-24T01:51:55.832Z,10.99
2022-09-24T01:52:56.168Z,10.99
2022-09-24T01:53:56.592Z,10.99
2022-09-24T01:54:56.814Z,11.00
2022-09-24T01:55:57.047Z,10.99
2022-09-24T01:56:57.268Z,10.96
2022-09-24T01:57:57.597Z,10.97
2022-09-24T01:58:57.974Z,10.96
2022-09-24T01:59:58.211Z,10.96
2022-09-24T02:00:58.467Z,10.96
2022-09-24T02:01:58.767Z,10.97
2022-09-24T02:02:58.939Z,10.96
2022-09-24T02:04:06.806Z,10.97
2022-09-24T02:04:59.527Z,10.96
2022-09-24T02:06:00.089Z,10.94
2022-09-24T02:07:00.262Z,10.96
2022-09-24T02:08:00.448Z,10.96
2022-09-24T02:09:00.741Z,10.96
2022-09-24T02:10:00.975Z,10.96
2022-09-24T02:11:01.211Z,10.94
2022-09-24T02:12:01.441Z,10.94
2022-09-24T02:13:01.671Z,10.94
2022-09-24T02:14:02.248Z,10.94
2022-09-24T02:15:02.349Z,10.94
2022-09-24T02:16:02.644Z,10.94
2022-09-24T02:17:02.871Z,10.94
2022-09-24T02:18:03.122Z,10.92
2022-09-24T02:19:03.363Z,10.94
2022-09-24T02:20:03.653Z,10.92
2022-09-24T02:21:03.905Z,10.92
2022-09-24T02:22:04.133Z,10.92
2022-09-24T02:23:04.495Z,10.89
2022-09-24T02:24:05.713Z,10.88
2022-09-24T02:25:05.023Z,10.88
2022-09-24T02:26:05.290Z,10.89
2022-09-24T02:27:05.522Z,10.89
2022-09-24T02:28:05.904Z,10.89
2022-09-24T02:29:06.184Z,10.91
2022-09-24T02:30:06.465Z,10.91
2022-09-24T02:31:06.719Z,10.91
2022-09-24T02:32:06.967Z,10.92
2022-09-24T02:33:07.189Z,10.92
2022-09-24T02:34:07.627Z,10.91
2022-09-24T02:35:07.876Z,10.91
2022-09-24T02:36:08.161Z,10.89
2022-09-24T02:37:08.377Z,10.89
2022-09-24T02:38:08.628Z,10.89
2022-09-24T02:39:08.852Z,10.91
2022-09-24T02:40:09.271Z,10.89
2022-09-24T02:41:09.504Z,10.89
2022-09-24T02:42:09.769Z,10.89
2022-09-24T02:43:10.072Z,10.85
2022-09-24T02:44:10.329Z,10.86
2022-09-24T02:45:10.590Z,10.88
2022-09-24T02:46:10.904Z,10.86
2022-09-24T02:47:11.120Z,10.86
2022-09-24T02:48:11.546Z,10.88
2022-09-24T02:49:11.764Z,10.86
2022-09-24T02:50:12.119Z,10.86
2022-09-24T02:51:12.332Z,10.86
2022-09-24T02:52:12.711Z,10.86
2022-09-24T02:53:12.944Z,10.86
2022-09-24T02:54:13.183Z,10.86
2022-09-24T02:55:13.402Z,10.88
2022-09-24T02:56:13.755Z,10.88
2022-09-24T02:57:14.108Z,10.88
2022-09-24T02:58:14.358Z,10.88
2022-09-24T02:59:14.563Z,10.86
2022-09-24T03:00:14.930Z,10.85
2022-09-24T03:01:15.243Z,10.84
2022-09-24T03:02:15.572Z,10.84
2022-09-24T03:03:15.729Z,10.82
2022-09-24T03:04:16.009Z,10.82
2022-09-24T03:05:16.353Z,10.84
2022-09-24T03:06:16.595Z,10.84
2022-09-24T03:07:16.833Z,10.82
2022-09-24T03:08:17.066Z,10.82
2022-09-24T03:09:17.374Z,10.84
2022-09-24T03:10:17.637Z,10.82
2022-09-24T03:11:18.929Z,10.82
2022-09-24T03:12:18.196Z,10.81
2022-09-24T03:13:18.436Z,10.82
2022-09-24T03:14:18.687Z,10.81
2022-09-24T03:15:18.949Z,10.81
2022-09-24T03:16:19.335Z,10.79
2022-09-24T03:17:19.387Z,10.81
2022-09-24T03:18:19.767Z,10.79
2022-09-24T03:19:20.006Z,10.79
2022-09-24T03:20:20.228Z,10.81
2022-09-24T03:21:20.443Z,10.82
2022-09-24T03:22:20.718Z,10.81
2022-09-24T03:23:20.939Z,10.81
2022-09-24T03:24:21.304Z,10.82
2022-09-24T03:25:21.567Z,10.82
2022-09-24T03:26:21.791Z,10.81
2022-09-24T03:27:22.143Z,10.82
2022-09-24T03:28:22.366Z,10.82
2022-09-24T03:29:22.732Z,10.82
2022-09-24T03:30:22.959Z,10.84
2022-09-24T03:31:23.369Z,10.85
2022-09-24T03:32:23.641Z,10.85
2022-09-24T03:33:23.879Z,10.86
2022-09-24T03:34:24.130Z,10.86
2022-09-24T03:35:24.336Z,10.86
2022-09-24T03:36:24.708Z,10.89
2022-09-24T03:37:24.988Z,10.88
2022-09-24T03:38:25.255Z,10.89
2022-09-24T03:39:25.534Z,10.91
2022-09-24T03:40:25.831Z,10.89
2022-09-24T03:41:26.051Z,10.89
2022-09-24T03:42:26.395Z,10.89
2022-09-24T03:43:26.625Z,10.89
2022-09-24T03:44:27.364Z,10.89
2022-09-24T03:45:27.257Z,10.89
2022-09-24T03:46:27.713Z,10.88
2022-09-24T03:47:27.912Z,10.89
2022-09-24T03:48:28.265Z,10.89
2022-09-24T03:49:28.606Z,10.89
2022-09-24T03:50:28.808Z,10.88
2022-09-24T03:51:29.079Z,10.86
2022-09-24T03:52:29.276Z,10.89
2022-09-24T03:53:29.618Z,10.88
2022-09-24T03:54:30.363Z,10.89
2022-09-24T03:55:30.257Z,10.88
2022-09-24T03:56:30.617Z,10.89
2022-09-24T03:57:30.837Z,10.89
2022-09-24T03:58:31.181Z,10.89
2022-09-24T03:59:31.630Z,10.89
2022-09-24T04:00:31.879Z,10.89
2022-09-24T04:01:32.160Z,10.89
2022-09-24T04:02:32.479Z,10.89
2022-09-24T04:03:32.717Z,10.92
2022-09-24T04:04:33.070Z,10.89
2022-09-24T04:05:33.268Z,10.89
2022-09-24T04:06:33.509Z,10.89
2022-09-24T04:07:33.721Z,10.89
2022-09-24T04:08:34.076Z,10.89
2022-09-24T04:09:34.442Z,10.91
2022-09-24T04:10:34.537Z,10.88
2022-09-24T04:11:34.759Z,10.89
2022-09-24T04:12:35.107Z,10.88
2022-09-24T04:13:35.463Z,10.89
2022-09-24T04:14:35.674Z,10.91
2022-09-24T04:15:36.040Z,10.91
2022-09-24T04:16:36.346Z,10.91
2022-09-24T04:17:36.589Z,10.91
2022-09-24T04:18:39.309Z,10.89
2022-09-24T04:19:37.077Z,10.86
2022-09-24T04:20:37.285Z,10.85
2022-09-24T04:21:37.583Z,10.85
2022-09-24T04:22:37.873Z,10.84
2022-09-24T04:23:38.152Z,10.85
2022-09-24T04:24:38.385Z,10.84
2022-09-24T04:25:38.661Z,10.84
2022-09-24T04:26:38.874Z,10.86
2022-09-24T04:27:39.333Z,10.85
2022-09-24T04:28:39.589Z,10.84
2022-09-24T04:29:39.831Z,10.84
2022-09-24T04:30:40.054Z,10.82
2022-09-24T04:31:40.420Z,10.82
2022-09-24T04:32:40.515Z,10.84
2022-09-24T04:33:40.894Z,10.84
2022-09-24T04:34:41.127Z,10.84
2022-09-24T04:35:41.387Z,10.84
2022-09-24T04:36:41.647Z,10.85
2022-09-24T04:37:41.898Z,10.85
2022-09-24T04:38:42.300Z,10.86
2022-09-24T04:39:42.376Z,10.86
2022-09-24T04:40:42.682Z,10.85
2022-09-24T04:41:42.910Z,10.86
2022-09-24T04:42:43.260Z,10.88
2022-09-24T04:43:43.511Z,10.89
2022-09-24T04:44:43.781Z,10.86
2022-09-24T04:45:44.069Z,10.89
2022-09-24T04:46:44.417Z,10.89
2022-09-24T04:47:44.580Z,10.89
2022-09-24T04:48:44.861Z,10.91
2022-09-24T04:49:45.123Z,10.91
2022-09-24T04:50:46.483Z,10.89
2022-09-24T04:51:45.730Z,10.91
2022-09-24T04:52:45.982Z,10.91
2022-09-24T04:53:46.251Z,10.91
2022-09-24T04:54:46.493Z,10.88
2022-09-24T04:55:46.721Z,10.89
2022-09-24T04:56:47.082Z,10.88
2022-09-24T04:57:47.311Z,10.89
2022-09-24T04:58:47.721Z,10.91
2022-09-24T04:59:47.984Z,10.92
2022-09-24T05:00:48.303Z,10.92
2022-09-24T05:01:48.619Z,10.94
2022-09-24T05:02:48.962Z,10.94
2022-09-24T05:03:49.623Z,10.94
2022-09-24T05:04:49.555Z,10.96
2022-09-24T05:05:49.822Z,10.96
2022-09-24T05:06:50.075Z,10.99
2022-09-24T05:07:50.344Z,10.99
2022-09-24T05:08:51.558Z,10.99
2022-09-24T05:09:50.845Z,10.99
2022-09-24T05:10:51.095Z,10.97
2022-09-24T05:11:51.385Z,10.96
2022-09-24T05:12:51.675Z,10.96
2022-09-24T05:13:51.927Z,10.96
2022-09-24T05:14:52.168Z,10.94
2022-09-24T05:15:52.465Z,10.97
2022-09-24T05:16:52.722Z,10.97
2022-09-24T05:17:52.998Z,10.99
2022-09-24T05:18:53.258Z,11.00
2022-09-24T05:19:53.543Z,11.00
2022-09-24T05:20:53.778Z,11.00
2022-09-24T05:21:54.047Z,11.02
2022-09-24T05:22:54.309Z,11.00
2022-09-24T05:23:54.578Z,11.00
2022-09-24T05:24:54.859Z,11.02
2022-09-24T05:25:55.128Z,11.02
2022-09-24T05:26:55.367Z,11.02
2022-09-24T05:27:55.652Z,11.04
2022-09-24T05:28:55.892Z,11.04
2022-09-24T05:29:56.123Z,11.04
2022-09-24T05:30:56.415Z,11.06
2022-09-24T05:31:56.659Z,11.09
2022-09-24T05:32:56.942Z,11.09
2022-09-24T05:33:57.182Z,11.09
2022-09-24T05:34:57.432Z,11.10
2022-09-24T05:35:57.690Z,11.11
2022-09-24T05:36:57.959Z,11.11
2022-09-24T05:37:58.204Z,11.14
2022-09-24T05:38:58.453Z,11.15
2022-09-24T05:39:58.695Z,11.15
2022-09-24T05:40:59.041Z,11.15
2022-09-24T05:41:59.164Z,11.15
2022-09-24T05:42:59.425Z,11.19
2022-09-24T05:43:59.665Z,11.19
2022-09-24T05:44:59.916Z,11.21
2022-09-24T05:46:00.248Z,11.21
2022-09-24T05:47:00.620Z,11.24
2022-09-24T05:48:00.774Z,11.24
2022-09-24T05:49:01.106Z,11.24
2022-09-24T05:50:01.266Z,11.27
2022-09-24T05:51:01.547Z,11.25
2022-09-24T05:52:01.816Z,11.27
2022-09-24T05:53:02.089Z,11.27
2022-09-24T05:54:02.364Z,11.27
2022-09-24T05:55:02.609Z,11.27
2022-09-24T05:56:02.867Z,11.27
2022-09-24T05:57:03.125Z,11.25
2022-09-24T05:58:03.408Z,11.27
2022-09-24T05:59:03.657Z,11.24
2022-09-24T06:00:03.928Z,11.27
2022-09-24T06:01:04.161Z,11.27
2022-09-24T06:02:04.558Z,11.28
2022-09-24T06:03:04.760Z,11.29
2022-09-24T06:04:08.774Z,11.32
2022-09-24T06:05:05.304Z,11.33
2022-09-24T06:06:05.557Z,11.35
2022-09-24T06:07:05.822Z,11.37
2022-09-24T06:08:06.092Z,11.39
2022-09-24T06:09:06.361Z,11.40
2022-09-24T06:10:06.684Z,11.42
2022-09-24T06:11:06.932Z,11.43
2022-09-24T06:12:07.231Z,11.44
2022-09-24T06:13:07.484Z,11.47
2022-09-24T06:14:07.755Z,11.49
2022-09-24T06:15:08.008Z,11.51
2022-09-24T06:16:08.408Z,11.54
2022-09-24T06:17:09.053Z,11.55
2022-09-24T06:18:08.835Z,11.55
2022-09-24T06:19:09.129Z,11.57
2022-09-24T06:20:09.420Z,11.58
2022-09-24T06:21:09.675Z,11.61
2022-09-24T06:22:09.936Z,11.61
2022-09-24T06:23:10.228Z,11.62
2022-09-24T06:24:10.497Z,11.65
2022-09-24T06:25:10.759Z,11.69
2022-09-24T06:26:11.038Z,11.70
2022-09-24T06:27:11.306Z,11.73
2022-09-24T06:28:11.570Z,11.75
2022-09-24T06:29:11.910Z,11.78
2022-09-24T06:30:12.168Z,11.82
2022-09-24T06:31:12.519Z,11.85
2022-09-24T06:32:12.706Z,11.86
2022-09-24T06:33:13.140Z,11.88
2022-09-24T06:34:13.238Z,11.86
2022-09-24T06:35:13.480Z,11.85
2022-09-24T06:36:13.739Z,11.85
2022-09-24T06:37:14.020Z,11.85
2022-09-24T06:38:14.282Z,11.82
2022-09-24T06:39:14.541Z,11.79
2022-09-24T06:40:14.883Z,11.79
2022-09-24T06:41:15.068Z,11.79
2022-09-24T06:42:15.339Z,11.78
2022-09-24T06:43:15.601Z,11.78
2022-09-24T06:44:15.871Z,11.73
2022-09-24T06:45:16.118Z,11.73
2022-09-24T06:46:16.417Z,11.76
2022-09-24T06:47:16.693Z,11.78
2022-09-24T06:48:16.966Z,11.76
2022-09-24T06:49:17.234Z,11.76
2022-09-24T06:50:17.494Z,11.78
2022-09-24T06:51:17.756Z,11.76
2022-09-24T06:52:18.016Z,11.76
2022-09-24T06:53:18.267Z,11.76
2022-09-24T06:54:18.583Z,11.78
2022-09-24T06:55:18.841Z,11.76
2022-09-24T06:56:19.095Z,11.78
2022-09-24T06:57:19.364Z,11.80
2022-09-24T06:58:19.635Z,11.82
2022-09-24T06:59:19.896Z,11.82
2022-09-24T07:00:20.173Z,11.85
2022-09-24T07:01:20.496Z,11.85
2022-09-24T07:02:20.839Z,11.88
2022-09-24T07:03:21.009Z,11.91
2022-09-24T07:04:21.277Z,11.91
2022-09-24T07:05:21.527Z,11.98
2022-09-24T07:06:21.797Z,12.01
2022-09-24T07:07:22.056Z,12.02
2022-09-24T07:08:22.318Z,12.09
2022-09-24T07:09:22.589Z,12.13
2022-09-24T07:10:22.847Z,12.14
2022-09-24T07:11:23.108Z,12.17
2022-09-24T07:12:23.380Z,12.20
2022-09-24T07:13:23.641Z,12.21
2022-09-24T07:14:23.901Z,12.24
2022-09-24T07:15:24.163Z,12.27
2022-09-24T07:16:24.519Z,12.34
2022-09-24T07:17:26.171Z,12.34
2022-09-24T07:18:25.008Z,12.38
2022-09-24T07:19:25.278Z,12.39
2022-09-24T07:20:25.531Z,12.42
2022-09-24T07:21:25.772Z,12.45
2022-09-24T07:22:26.033Z,12.45
2022-09-24T07:23:26.312Z,12.49
2022-09-24T07:24:26.573Z,12.52
2022-09-24T07:25:26.820Z,12.53
2022-09-24T07:26:27.076Z,12.56
2022-09-24T07:27:27.324Z,12.57
2022-09-24T07:28:27.605Z,12.59
2022-09-24T07:29:27.855Z,12.57
2022-09-24T07:30:28.126Z,12.57
2022-09-24T07:31:28.488Z,12.59
2022-09-24T07:32:30.037Z,12.59
2022-09-24T07:33:28.865Z,12.62
2022-09-24T07:34:29.116Z,12.62
2022-09-24T07:35:29.367Z,12.65
2022-09-24T07:36:29.627Z,12.67
2022-09-24T07:37:29.919Z,12.71
2022-09-24T07:38:30.149Z,12.72
2022-09-24T07:39:30.403Z,12.74
2022-09-24T07:40:30.721Z,12.77
2022-09-24T07:41:31.003Z,12.78
2022-09-24T07:42:31.268Z,12.79
2022-09-24T07:43:31.598Z,12.78
2022-09-24T07:44:31.852Z,12.85
2022-09-24T07:45:32.859Z,12.86
2022-09-24T07:46:33.164Z,12.86
2022-09-24T07:47:32.821Z,12.90
2022-09-24T07:48:32.911Z,12.93
2022-09-24T07:49:33.930Z,12.93
2022-09-24T07:50:33.531Z,12.96
2022-09-24T07:51:33.782Z,12.96
2022-09-24T07:52:34.069Z,13.00
2022-09-24T07:53:34.316Z,13.01
2022-09-24T07:54:34.573Z,13.04
2022-09-24T07:55:34.823Z,13.04
2022-09-24T07:56:35.072Z,13.05
2022-09-24T07:57:35.364Z,13.04
2022-09-24T07:58:35.603Z,13.07
2022-09-24T07:59:35.851Z,13.05
2022-09-24T08:00:36.098Z,13.04
2022-09-24T08:01:36.410Z,13.05
2022-09-24T08:02:36.678Z,13.08
2022-09-24T08:03:37.009Z,13.11
2022-09-24T08:04:37.374Z,13.15
2022-09-24T08:05:37.496Z,13.19
2022-09-24T08:06:40.488Z,13.20
2022-09-24T08:07:38.076Z,13.23
2022-09-24T08:08:38.379Z,13.28
2022-09-24T08:09:38.628Z,13.30
2022-09-24T08:10:38.865Z,13.33
2022-09-24T08:11:39.129Z,13.33
2022-09-24T08:12:39.416Z,13.32
2022-09-24T08:13:39.689Z,13.33
2022-09-24T08:14:39.975Z,13.32
2022-09-24T08:15:40.418Z,13.32
2022-09-24T08:16:40.530Z,13.32
2022-09-24T08:17:41.290Z,13.32
2022-09-24T08:18:41.111Z,13.30
2022-09-24T08:19:41.373Z,13.30
2022-09-24T08:20:41.674Z,13.30
2022-09-24T08:21:41.921Z,13.33
2022-09-24T08:22:42.223Z,13.38
2022-09-24T08:23:42.513Z,13.39
2022-09-24T08:24:42.803Z,13.44
2022-09-24T08:25:43.113Z,13.46
2022-09-24T08:26:43.374Z,13.49
2022-09-24T08:27:43.733Z,13.51
2022-09-24T08:28:43.857Z,13.55
2022-09-24T08:29:44.140Z,13.57
2022-09-24T08:30:44.384Z,13.60
2022-09-24T08:31:44.746Z,13.62
2022-09-24T08:32:44.888Z,13.67
2022-09-24T08:33:45.136Z,13.70
2022-09-24T08:34:45.416Z,13.71
2022-09-24T08:35:45.687Z,13.73
2022-09-24T08:36:45.956Z,13.77
2022-09-24T08:37:46.235Z,13.78
2022-09-24T08:38:46.497Z,13.82
2022-09-24T08:39:46.756Z,13.87
2022-09-24T08:40:47.103Z,13.91
2022-09-24T08:41:47.242Z,13.92
2022-09-24T08:42:47.566Z,13.97
2022-09-24T08:43:47.848Z,14.02
2022-09-24T08:44:48.109Z,14.02
2022-09-24T08:45:48.371Z,14.04
2022-09-24T08:46:48.673Z,14.07
2022-09-24T08:47:48.918Z,14.10
2022-09-24T08:48:49.161Z,14.14
2022-09-24T08:49:49.481Z,14.18
2022-09-24T08:50:49.743Z,14.21
2022-09-24T08:51:50.009Z,14.24
2022-09-24T08:52:50.292Z,14.28
2022-09-24T08:53:50.564Z,14.29
2022-09-24T08:54:50.834Z,14.33
2022-09-24T08:55:51.112Z,14.35
2022-09-24T08:56:51.385Z,14.36
2022-09-24T08:57:51.654Z,14.40
2022-09-24T08:58:51.925Z,14.43
2022-09-24T08:59:52.189Z,14.40
2022-09-24T09:00:52.453Z,14.42
2022-09-24T09:01:52.871Z,14.42
2022-09-24T09:02:53.063Z,14.43
2022-09-24T09:03:53.324Z,14.46
2022-09-24T09:04:53.577Z,14.51
2022-09-24T09:05:53.912Z,14.52
2022-09-24T09:06:54.159Z,14.52
2022-09-24T09:07:54.420Z,14.51
2022-09-24T09:09:06.719Z,14.50
2022-09-24T09:09:56.075Z,14.51
2022-09-24T09:10:55.267Z,14.55
2022-09-24T09:11:55.545Z,14.54
2022-09-24T09:12:55.869Z,14.52
2022-09-24T09:13:56.140Z,14.52
2022-09-24T09:14:56.399Z,14.54
2022-09-24T09:15:56.783Z,14.55
2022-09-24T09:16:56.902Z,14.58
2022-09-24T09:17:57.330Z,14.62
2022-09-24T09:18:57.433Z,14.68
2022-09-24T09:19:57.727Z,14.72
2022-09-24T09:20:58.023Z,14.75
2022-09-24T09:21:58.282Z,14.77
2022-09-24T09:22:58.546Z,14.77
2022-09-24T09:23:58.803Z,14.78
2022-09-24T09:25:03.716Z,14.83
2022-09-24T09:26:00.296Z,14.83
2022-09-24T09:26:59.761Z,14.84
2022-09-24T09:27:59.914Z,14.88
2022-09-24T09:29:00.164Z,14.91
2022-09-24T09:30:00.443Z,14.95
2022-09-24T09:31:00.744Z,14.95
2022-09-24T09:32:01.076Z,14.94
2022-09-24T09:33:01.185Z,14.91
2022-09-24T09:34:01.641Z,14.92
2022-09-24T09:35:01.802Z,14.94
2022-09-24T09:36:02.114Z,14.94
2022-09-24T09:37:02.384Z,14.94
2022-09-24T09:38:02.695Z,14.92
2022-09-24T09:39:02.989Z,14.88
2022-09-24T09:40:03.272Z,14.89
2022-09-24T09:41:03.838Z,14.92
2022-09-24T09:42:03.830Z,14.94
2022-09-24T09:43:04.216Z,14.95
2022-09-24T09:44:04.394Z,14.98
2022-09-24T09:45:04.661Z,14.99
2022-09-24T09:46:04.994Z,15.01
2022-09-24T09:47:05.242Z,15.01
2022-09-24T09:48:05.573Z,15.03
2022-09-24T09:49:05.838Z,15.03
2022-09-24T09:50:06.099Z,15.07
2022-09-24T09:51:06.386Z,15.10
2022-09-24T09:52:06.654Z,15.13
2022-09-24T09:53:06.925Z,15.14
2022-09-24T09:54:07.320Z,15.14
2022-09-24T09:55:07.557Z,15.14
2022-09-24T09:56:07.745Z,15.13
2022-09-24T09:57:08.018Z,15.11
2022-09-24T09:58:08.298Z,15.11
2022-09-24T09:59:08.562Z,15.14
2022-09-24T10:00:08.856Z,15.17
2022-09-24T10:01:09.126Z,15.17
2022-09-24T10:02:09.465Z,15.20
2022-09-24T10:03:09.703Z,15.21
2022-09-24T10:04:09.911Z,15.21
2022-09-24T10:05:10.804Z,15.21
2022-09-24T10:06:11.439Z,15.23
2022-09-24T10:07:10.739Z,15.27
2022-09-24T10:08:11.039Z,15.25
2022-09-24T10:09:11.293Z,15.25
2022-09-24T10:10:11.564Z,15.25
2022-09-24T10:11:11.811Z,15.27
2022-09-24T10:12:13.023Z,15.25
2022-09-24T10:13:12.353Z,15.27
2022-09-24T10:14:12.611Z,15.29
2022-09-24T10:15:12.863Z,15.29
2022-09-24T10:16:13.149Z,15.32
2022-09-24T10:17:13.443Z,15.35
2022-09-24T10:18:13.712Z,15.38
2022-09-24T10:19:13.967Z,15.41
2022-09-24T10:20:14.237Z,15.46
2022-09-24T10:21:14.544Z,15.49
2022-09-24T10:22:14.803Z,15.49
2022-09-24T10:23:15.097Z,15.47
2022-09-24T10:24:15.422Z,15.49
2022-09-24T10:25:15.687Z,15.50
2022-09-24T10:26:15.984Z,15.47
2022-09-24T10:27:16.245Z,15.46
2022-09-24T10:28:16.778Z,15.46
2022-09-24T10:29:16.797Z,15.43
2022-09-24T10:30:17.057Z,15.46
2022-09-24T10:31:17.377Z,15.49
2022-09-24T10:32:17.693Z,15.53
2022-09-24T10:33:17.942Z,15.57
2022-09-24T10:34:18.211Z,15.59
2022-09-24T10:35:18.487Z,15.65
2022-09-24T10:36:18.767Z,15.67
2022-09-24T10:37:19.177Z,15.62
2022-09-24T10:38:19.339Z,15.60
2022-09-24T10:39:19.731Z,15.60
2022-09-24T10:40:19.938Z,15.62
2022-09-24T10:41:20.184Z,15.64
2022-09-24T10:42:20.502Z,15.64
2022-09-24T10:43:20.773Z,15.65
2022-09-24T10:44:21.111Z,15.65
2022-09-24T10:45:21.389Z,15.67
2022-09-24T10:46:21.784Z,15.69
2022-09-24T10:47:22.006Z,15.72
2022-09-24T10:48:22.344Z,15.76
2022-09-24T10:49:22.657Z,15.76
2022-09-24T10:50:23.086Z,15.76
2022-09-24T10:51:28.788Z,15.75
2022-09-24T10:52:24.478Z,15.76
2022-09-24T10:53:23.673Z,15.75
2022-09-24T10:54:23.936Z,15.78
2022-09-24T10:55:24.274Z,15.82
2022-09-24T10:56:24.650Z,15.83
2022-09-24T10:57:24.841Z,15.86
2022-09-24T10:58:25.155Z,15.87
2022-09-24T10:59:25.459Z,15.87
2022-09-24T11:00:25.786Z,15.89
2022-09-24T11:01:26.136Z,15.89
2022-09-24T11:02:26.517Z,15.89
2022-09-24T11:03:26.759Z,15.92
2022-09-24T11:04:27.126Z,15.93
2022-09-24T11:05:27.103Z,15.94
2022-09-24T11:06:27.360Z,15.97
2022-09-24T11:07:27.650Z,15.94
2022-09-24T11:08:27.939Z,15.92
2022-09-24T11:09:28.259Z,15.89
2022-09-24T11:10:28.527Z,15.89
2022-09-24T11:11:28.813Z,15.92
2022-09-24T11:12:29.156Z,15.94
2022-09-24T11:13:29.425Z,16.00
2022-09-24T11:14:29.693Z,16.01
2022-09-24T11:15:29.975Z,16.02
2022-09-24T11:16:30.319Z,15.97
2022-09-24T11:17:30.479Z,16.00
2022-09-24T11:18:30.775Z,16.01
2022-09-24T11:19:31.038Z,16.01
2022-09-24T11:20:31.344Z,16.01
2022-09-24T11:21:31.607Z,16.04
2022-09-24T11:22:31.925Z,16.08
2022-09-24T11:23:32.200Z,16.11
2022-09-24T11:24:32.478Z,16.09
2022-09-24T11:25:32.738Z,16.12
2022-09-24T11:26:33.089Z,16.12
2022-09-24T11:27:33.422Z,16.14
2022-09-24T11:28:33.721Z,16.17
2022-09-24T11:29:37.178Z,16.20
2022-09-24T11:30:34.300Z,16.17
2022-09-24T11:31:35.357Z,16.21
2022-09-24T11:32:34.823Z,16.23
2022-09-24T11:33:35.083Z,16.25
2022-09-24T11:34:35.362Z,16.24
2022-09-24T11:35:35.642Z,16.24
2022-09-24T11:36:35.931Z,16.24
2022-09-24T11:37:36.238Z,16.27
2022-09-24T11:38:36.592Z,16.30
2022-09-24T11:39:36.746Z,16.35
2022-09-24T11:40:37.072Z,16.38
2022-09-24T11:41:37.335Z,16.42
2022-09-24T11:42:37.617Z,16.45
2022-09-24T11:43:38.786Z,16.46
2022-09-24T11:44:38.251Z,16.48
2022-09-24T11:45:38.527Z,16.49
2022-09-24T11:46:38.825Z,16.50
2022-09-24T11:47:39.079Z,16.56
2022-09-24T11:48:39.349Z,16.58
2022-09-24T11:49:39.606Z,16.57
2022-09-24T11:50:43.631Z,16.60
2022-09-24T11:51:41.376Z,16.61
2022-09-24T11:52:40.463Z,16.63
2022-09-24T11:53:40.746Z,16.63
2022-09-24T11:54:41.031Z,16.63
2022-09-24T11:55:41.290Z,16.67
2022-09-24T11:56:41.559Z,16.70
2022-09-24T11:57:41.850Z,16.71
2022-09-24T11:58:42.200Z,16.71
2022-09-24T11:59:42.474Z,16.71
2022-09-24T12:00:42.896Z,16.71
2022-09-24T12:01:43.046Z,16.73
2022-09-24T12:02:43.387Z,16.75
2022-09-24T12:03:43.685Z,16.78
2022-09-24T12:04:43.961Z,16.81
2022-09-24T12:05:44.234Z,16.82
2022-09-24T12:06:44.549Z,16.85
2022-09-24T12:07:44.835Z,16.89
2022-09-24T12:08:45.110Z,16.93
2022-09-24T12:09:45.375Z,16.93
2022-09-24T12:10:45.669Z,16.93
2022-09-24T12:11:45.927Z,16.93
2022-09-24T12:12:46.227Z,16.94
2022-09-24T12:13:46.487Z,16.93
2022-09-24T12:14:46.758Z,16.94
2022-09-24T12:15:47.102Z,16.96
2022-09-24T12:16:47.379Z,16.96
2022-09-24T12:17:47.659Z,16.96
2022-09-24T12:18:47.931Z,16.96
2022-09-24T12:19:48.202Z,16.96
2022-09-24T12:20:48.470Z,16.97
2022-09-24T12:21:48.730Z,16.93
2022-09-24T12:22:49.014Z,16.94
2022-09-24T12:23:49.557Z,16.96
2022-09-24T12:24:49.491Z,16.96
2022-09-24T12:25:49.734Z,16.96
2022-09-24T12:26:49.983Z,16.97
2022-09-24T12:27:50.318Z,17.00
2022-09-24T12:28:50.588Z,17.03
2022-09-24T12:29:50.843Z,17.04
2022-09-24T12:30:51.235Z,17.04
2022-09-24T12:31:51.418Z,17.04
2022-09-24T12:32:51.837Z,17.06
2022-09-24T12:33:51.928Z,17.04
2022-09-24T12:34:52.205Z,17.04
2022-09-24T12:35:52.546Z,17.07
2022-09-24T12:36:56.795Z,17.11
2022-09-24T12:37:53.035Z,17.08
2022-09-24T12:38:53.460Z,17.14
2022-09-24T12:39:53.592Z,17.15
2022-09-24T12:40:53.857Z,17.18
2022-09-24T12:41:54.220Z,17.19
2022-09-24T12:42:54.377Z,17.16
2022-09-24T12:43:54.649Z,17.18
2022-09-24T12:44:54.910Z,17.19
2022-09-24T12:45:55.208Z,17.22
2022-09-24T12:46:55.553Z,17.21
2022-09-24T12:47:55.941Z,17.23
2022-09-24T12:48:56.033Z,17.28
2022-09-24T12:49:56.300Z,17.33
2022-09-24T12:50:57.491Z,17.36
2022-09-24T12:51:56.832Z,17.40
2022-09-24T12:52:57.116Z,17.43
2022-09-24T12:53:57.411Z,17.44
2022-09-24T12:54:57.675Z,17.46
2022-09-24T12:55:57.983Z,17.44